Time;durP1;ratioP1;P1;durP2;ratioP2;P2;SDS_P1;SDS_P2;PMS_P1;PMS_P2;Temp;Humidity;BMP_temperature;BMP_pressure;BME280_temperature;BME280_humidity;BME280_pressure;Samples;Min_cycle;Max_cycle;Signal;HPM_P1;HPM_P2
2023/08/03 00:00:49;;;;;;;0.40;0.20;;;;;;;18.93;97.08;98453.53;4906834;29;20085;-66
2023/08/03 00:03:14;;;;;;;0.17;0.17;;;;;;;19.00;97.07;98458.66;4930592;28;20435;-67
2023/08/03 00:05:40;;;;;;;0.93;0.20;;;;;;;18.99;96.80;98453.69;4968235;28;20038;-66
2023/08/03 00:08:05;;;;;;;0.45;0.30;;;;;;;18.98;97.47;98457.59;4978077;28;20046;-66
2023/08/03 00:10:32;;;;;;;0.20;0.20;;;;;;;18.94;97.79;98449.59;4986295;28;20532;-66
2023/08/03 00:12:58;;;;;;;2.72;0.22;;;;;;;18.85;98.55;98452.41;4983294;28;20038;-67
2023/08/03 00:15:23;;;;;;;0.40;0.20;;;;;;;18.82;98.68;98447.84;4991852;28;20120;-67
2023/08/03 00:17:48;;;;;;;0.20;0.15;;;;;;;18.83;98.41;98449.38;5041115;28;20446;-66
2023/08/03 00:20:14;;;;;;;0.10;0.10;;;;;;;18.76;98.61;98457.91;5027119;28;20041;-67
2023/08/03 00:22:39;;;;;;;0.65;0.40;;;;;;;18.82;98.41;98450.59;5035325;28;20029;-66
2023/08/03 00:25:05;;;;;;;1.40;0.28;;;;;;;18.87;97.69;98450.69;5035130;28;20497;-67
2023/08/03 00:27:30;;;;;;;0.10;0.10;;;;;;;18.84;98.16;98453.59;5048268;28;20025;-67
2023/08/03 00:29:56;;;;;;;0.55;0.40;;;;;;;18.84;97.93;98450.88;5041634;28;20112;-66
2023/08/03 00:32:22;;;;;;;0.52;0.20;;;;;;;18.75;98.51;98448.22;5042676;28;20028;-67
2023/08/03 00:34:47;;;;;;;1.25;0.20;;;;;;;18.77;98.75;98446.53;5029774;28;20493;-67
2023/08/03 00:37:13;;;;;;;0.28;0.20;;;;;;;18.89;98.06;98450.25;5037757;28;20037;-66
2023/08/03 00:39:38;;;;;;;0.45;0.20;;;;;;;18.91;97.70;98448.56;5035846;28;20033;-67
2023/08/03 00:42:05;;;;;;;0.98;0.40;;;;;;;19.02;97.37;98453.50;5039646;28;20037;-66
2023/08/03 00:44:30;;;;;;;0.10;0.10;;;;;;;19.00;97.91;98455.94;5025761;28;20029;-66
2023/08/03 00:46:56;;;;;;;0.20;0.20;;;;;;;18.92;98.24;98457.50;5048300;28;20104;-66
2023/08/03 00:49:27;;;;;;;0.13;0.10;;;;;;;18.70;100.00;98457.78;5031500;28;20052;-66
2023/08/03 00:51:54;;;;;;;0.20;0.20;;;;;;;18.96;99.61;98449.13;5042972;28;20033;-66
2023/08/03 00:54:19;;;;;;;0.10;0.10;;;;;;;18.96;99.73;98449.13;5015361;28;20379;-66
2023/08/03 00:56:45;;;;;;;0.47;0.40;;;;;;;18.92;100.00;98458.25;5045215;28;20032;-66
2023/08/03 00:59:11;;;;;;;0.20;0.20;;;;;;;18.94;100.00;98449.59;5046259;28;20166;-66
2023/08/03 01:01:37;;;;;;;0.60;0.40;;;;;;;19.09;100.00;98442.22;5049639;28;20025;-66
2023/08/03 01:04:02;;;;;;;1.38;0.60;;;;;;;19.12;100.00;98441.31;5026681;28;20505;-66
2023/08/03 01:06:28;;;;;;;0.88;0.35;;;;;;;19.17;98.95;98431.69;5029439;28;20033;-66
2023/08/03 01:08:55;;;;;;;0.30;0.30;;;;;;;19.11;100.00;98437.03;5046061;28;20436;-66
2023/08/03 01:11:20;;;;;;;0.60;0.30;;;;;;;19.03;100.00;98427.69;5030589;28;20055;-66
2023/08/03 01:13:46;;;;;;;0.30;0.30;;;;;;;19.07;100.00;98433.75;5045302;28;20029;-66
2023/08/03 01:16:12;;;;;;;0.80;0.47;;;;;;;19.01;100.00;98432.88;5047058;28;20091;-66
2023/08/03 01:18:42;;;;;;;0.43;0.25;;;;;;;19.06;100.00;98431.47;5023935;28;20477;-66
2023/08/03 01:21:09;;;;;;;1.98;0.40;;;;;;;19.02;100.00;98433.63;5039286;28;20064;-66
2023/08/03 01:23:34;;;;;;;3.65;0.40;;;;;;;19.01;100.00;98429.41;5049193;28;20078;-66
2023/08/03 01:26:00;;;;;;;0.20;0.20;;;;;;;19.09;100.00;98428.56;5047583;28;20428;-66
2023/08/03 01:28:25;;;;;;;0.20;0.20;;;;;;;18.96;100.00;98425.34;5039295;28;20037;-66
2023/08/03 01:30:50;;;;;;;0.30;0.30;;;;;;;18.97;100.00;98417.91;5039414;28;20414;-66
2023/08/03 01:33:16;;;;;;;0.70;0.43;;;;;;;18.99;100.00;98424.41;5042897;28;20044;-66
2023/08/03 01:35:42;;;;;;;0.35;0.30;;;;;;;19.10;100.00;98423.88;5041372;28;20037;-66
2023/08/03 01:38:07;;;;;;;0.30;0.30;;;;;;;19.06;100.00;98420.56;5042671;28;20036;-66
2023/08/03 01:40:32;;;;;;;0.30;0.30;;;;;;;19.02;100.00;98418.03;5033518;28;20029;-66
2023/08/03 01:42:58;;;;;;;0.50;0.30;;;;;;;19.06;100.00;98426.78;5047221;28;20037;-66
2023/08/03 01:45:23;;;;;;;0.43;0.20;;;;;;;19.02;100.00;98420.75;5030918;28;20037;-66
2023/08/03 01:47:49;;;;;;;0.30;0.30;;;;;;;18.91;100.00;98428.72;5041149;28;20033;-66
2023/08/03 01:50:14;;;;;;;4.35;0.30;;;;;;;19.01;100.00;98427.41;5040048;28;20124;-66
2023/08/03 01:52:40;;;;;;;0.82;0.32;;;;;;;19.21;100.00;98413.16;5046890;28;20144;-66
2023/08/03 01:55:06;;;;;;;0.52;0.30;;;;;;;19.14;100.00;98419.00;5041907;28;20060;-66
2023/08/03 01:57:31;;;;;;;0.52;0.40;;;;;;;19.08;100.00;98412.66;5043724;28;20070;-66
2023/08/03 01:59:57;;;;;;;0.40;0.40;;;;;;;19.13;100.00;98410.03;5028719;28;20722;-66
2023/08/03 02:02:23;;;;;;;0.32;0.32;;;;;;;18.99;100.00;98410.75;5026866;28;20048;-66
2023/08/03 02:04:50;;;;;;;1.02;0.77;;;;;;;19.13;100.00;98399.13;5026166;28;20043;-66
2023/08/03 02:07:37;;;;;;;0.40;0.30;;;;;;;19.20;100.00;98404.22;5022209;28;20470;-66
2023/08/03 02:10:03;;;;;;;0.40;0.30;;;;;;;19.12;100.00;98402.34;5045412;28;20098;-66
2023/08/03 02:12:28;;;;;;;1.95;0.38;;;;;;;19.09;100.00;98392.34;5048690;28;20029;-66
2023/08/03 02:14:54;;;;;;;2.75;0.55;;;;;;;19.03;100.00;98386.78;5040446;28;20064;-66
2023/08/03 02:17:41;;;;;;;0.50;0.40;;;;;;;19.07;100.00;98395.53;5031805;28;20032;-66
2023/08/03 02:20:07;;;;;;;2.38;0.30;;;;;;;19.07;100.00;98383.84;4944807;28;20605;-66
2023/08/03 02:22:33;;;;;;;0.22;0.22;;;;;;;19.02;100.00;98387.25;4947489;29;20046;-66
2023/08/03 02:24:58;;;;;;;0.40;0.30;;;;;;;19.11;100.00;98379.75;4968495;28;20129;-66
2023/08/03 02:27:23;;;;;;;0.20;0.20;;;;;;;19.09;100.00;98381.41;4953520;28;20173;-66
2023/08/03 02:29:49;;;;;;;0.52;0.32;;;;;;;18.97;100.00;98380.44;4967332;28;20043;-66
2023/08/03 02:32:15;;;;;;;1.35;0.47;;;;;;;18.83;100.00;98383.91;4952374;28;20043;-66
2023/08/03 02:34:41;;;;;;;0.68;0.30;;;;;;;18.83;100.00;98383.91;4954021;28;20035;-66
2023/08/03 02:37:07;;;;;;;0.60;0.40;;;;;;;18.93;100.00;98377.16;4962785;28;20049;-66
2023/08/03 02:39:33;;;;;;;0.70;0.40;;;;;;;18.95;100.00;98377.44;4952465;28;20035;-66
2023/08/03 02:42:00;;;;;;;1.73;0.45;;;;;;;18.97;100.00;98377.72;4952456;28;20508;-66
2023/08/03 02:44:34;;;;;;;0.45;0.30;;;;;;;18.60;100.00;98379.22;4956585;28;20082;-66
2023/08/03 02:46:59;;;;;;;0.43;0.20;;;;;;;18.65;100.00;98379.34;4947614;28;20090;-66
2023/08/03 02:49:24;;;;;;;2.97;0.50;;;;;;;18.79;100.00;98372.44;4952136;28;20540;-66
2023/08/03 02:51:51;;;;;;;0.75;0.40;;;;;;;18.72;100.00;98378.97;4954499;28;20067;-66
2023/08/03 02:54:23;;;;;;;0.20;0.20;;;;;;;18.61;100.00;98378.00;4954063;28;20195;-66
2023/08/03 02:56:53;;;;;;;3.70;0.30;;;;;;;18.87;100.00;98377.03;4987877;28;20151;-66
2023/08/03 02:59:19;;;;;;;0.60;0.30;;;;;;;18.80;100.00;98366.50;5033392;28;20111;-66
2023/08/03 03:01:45;;;;;;;0.40;0.32;;;;;;;18.86;100.00;98377.50;5047905;28;20032;-66
2023/08/03 03:04:11;;;;;;;1.23;1.13;;;;;;;18.80;100.00;98366.50;5032716;28;20020;-66
2023/08/03 03:06:42;;;;;;;0.95;0.50;;;;;;;18.87;100.00;98370.84;5032647;28;20025;-66
2023/08/03 03:09:08;;;;;;;0.82;0.20;;;;;;;18.88;100.00;98364.94;5045332;28;20032;-66
2023/08/03 03:11:36;;;;;;;0.30;0.30;;;;;;;18.73;100.00;98368.84;5036082;28;20029;-66
2023/08/03 03:14:01;;;;;;;1.27;0.40;;;;;;;18.81;100.00;98372.72;5031671;28;20040;-66
2023/08/03 03:16:27;;;;;;;0.30;0.30;;;;;;;18.81;100.00;98362.53;5049326;28;20036;-66
2023/08/03 03:18:54;;;;;;;1.20;0.50;;;;;;;18.84;100.00;98360.84;5039449;28;20391;-66
2023/08/03 03:21:20;;;;;;;0.63;0.40;;;;;;;18.76;100.00;98351.53;5029883;28;20024;-66
2023/08/03 03:23:47;;;;;;;0.70;0.40;;;;;;;18.69;100.00;98358.09;5024699;28;20022;-66
2023/08/03 03:26:13;;;;;;;1.35;0.70;;;;;;;18.93;100.00;98355.31;5020285;28;20112;-66
2023/08/03 03:28:38;;;;;;;0.43;0.40;;;;;;;18.93;100.00;98350.63;5044546;28;20128;-66
2023/08/03 03:31:04;;;;;;;0.30;0.20;;;;;;;18.89;100.00;98344.59;5027377;28;20186;-66
2023/08/03 03:33:30;;;;;;;0.60;0.52;;;;;;;18.75;100.00;98341.84;5031991;28;20924;-66
2023/08/03 03:36:06;;;;;;;0.25;0.25;;;;;;;18.74;100.00;98351.22;5032863;28;20037;-66
2023/08/03 03:38:32;;;;;;;1.13;0.80;;;;;;;18.76;100.00;98346.06;5032778;28;20581;-66
2023/08/03 03:40:58;;;;;;;7.68;0.47;;;;;;;18.67;100.00;98337.97;5046927;28;20124;-66
2023/08/03 03:43:23;;;;;;;0.35;0.35;;;;;;;18.63;100.00;98338.16;5046473;28;20114;-66
2023/08/03 03:45:49;;;;;;;0.80;0.35;;;;;;;18.76;100.00;98338.66;5027240;28;20041;-66
2023/08/03 03:48:15;;;;;;;0.32;0.32;;;;;;;18.86;100.00;98325.69;5023169;28;21073;-66
2023/08/03 03:50:40;;;;;;;0.65;0.47;;;;;;;18.93;100.00;98333.50;5050463;28;20414;-66
2023/08/03 03:53:06;;;;;;;0.50;0.40;;;;;;;19.10;100.00;98322.91;5049920;28;20033;-66
2023/08/03 03:55:33;;;;;;;0.20;0.15;;;;;;;18.77;100.00;98323.03;5030243;28;20442;-66
2023/08/03 03:58:00;;;;;;;0.60;0.40;;;;;;;18.62;100.00;98319.53;5016034;28;20127;-66
2023/08/03 04:00:26;;;;;;;0.30;0.30;;;;;;;18.71;100.00;98319.44;5027967;28;20382;-66
2023/08/03 04:02:53;;;;;;;1.17;0.43;;;;;;;18.76;100.00;98316.06;5022556;28;20040;-66
2023/08/03 04:05:22;;;;;;;0.17;0.17;;;;;;;18.83;100.00;98326.63;5029489;28;20090;-66
2023/08/03 04:07:47;;;;;;;1.60;0.25;;;;;;;19.03;100.00;98324.00;5026712;28;20029;-66
2023/08/03 04:10:13;;;;;;;0.40;0.30;;;;;;;18.88;100.00;98318.56;5034104;28;20029;-66
2023/08/03 04:12:38;;;;;;;0.47;0.30;;;;;;;19.05;100.00;98323.56;5044560;28;20436;-66
2023/08/03 04:15:04;;;;;;;0.73;0.47;;;;;;;18.91;100.00;98327.78;5050623;28;20380;-66
2023/08/03 04:17:29;;;;;;;1.75;0.32;;;;;;;18.92;100.00;98321.84;5049578;28;20096;-66
2023/08/03 04:19:55;;;;;;;0.52;0.38;;;;;;;18.84;100.00;98319.94;5032985;28;20056;-66
2023/08/03 04:22:21;;;;;;;0.25;0.20;;;;;;;18.90;100.00;98321.56;5035529;28;20515;-66
2023/08/03 04:24:46;;;;;;;0.40;0.30;;;;;;;18.72;100.00;98320.94;5038933;28;20029;-66
2023/08/03 04:27:12;;;;;;;0.40;0.40;;;;;;;18.91;100.00;98317.59;5031147;28;20033;-66
2023/08/03 04:29:38;;;;;;;0.63;0.40;;;;;;;19.08;100.00;98317.91;5030107;28;20021;-66
2023/08/03 04:32:04;;;;;;;0.30;0.30;;;;;;;19.25;100.00;98315.47;5037068;28;20504;-66
2023/08/03 04:34:30;;;;;;;0.30;0.20;;;;;;;19.29;100.00;98318.78;5033073;28;20028;-66
2023/08/03 04:37:02;;;;;;;0.52;0.35;;;;;;;19.18;100.00;98313.88;5038391;28;20025;-66
2023/08/03 04:39:29;;;;;;;0.40;0.30;;;;;;;19.15;100.00;98314.81;5034132;28;20028;-66
2023/08/03 04:41:54;;;;;;;0.55;0.20;;;;;;;19.11;100.00;98318.94;5030589;28;20029;-66
2023/08/03 04:44:21;;;;;;;0.90;0.30;;;;;;;19.19;100.00;98329.03;5034392;28;20075;-66
2023/08/03 04:46:46;;;;;;;1.40;0.38;;;;;;;19.07;100.00;98321.09;5035223;28;20513;-66
2023/08/03 04:49:13;;;;;;;0.68;0.43;;;;;;;18.96;100.00;98318.94;5018968;28;20501;-66
2023/08/03 04:51:44;;;;;;;0.98;0.30;;;;;;;19.01;100.00;98318.28;5032685;28;20429;-66
2023/08/03 04:54:14;;;;;;;0.45;0.40;;;;;;;19.10;100.00;98326.41;5041023;28;20447;-66
2023/08/03 04:56:40;;;;;;;0.38;0.30;;;;;;;18.99;100.00;98323.44;5053230;28;20021;-66
2023/08/03 04:59:05;;;;;;;0.30;0.20;;;;;;;18.95;100.00;98319.41;5023056;22;20042;-66
2023/08/03 05:01:32;;;;;;;2.75;0.30;;;;;;;18.84;100.00;98311.75;5046196;28;20080;-65
2023/08/03 05:04:00;;;;;;;0.25;0.17;;;;;;;18.77;100.00;98317.59;5049626;28;20052;-66
2023/08/03 05:06:26;;;;;;;0.50;0.35;;;;;;;18.68;100.00;98314.91;5056934;28;20037;-68
2023/08/03 05:08:52;;;;;;;0.40;0.30;;;;;;;18.86;100.00;98312.81;5057307;28;20129;-68
2023/08/03 05:11:19;;;;;;;2.67;0.40;;;;;;;18.92;100.00;98308.22;5024867;28;20037;-68
2023/08/03 05:13:45;;;;;;;0.40;0.40;;;;;;;18.97;100.00;98312.25;5032162;28;20114;-68
2023/08/03 05:16:11;;;;;;;0.20;0.20;;;;;;;18.73;100.00;98297.91;4969233;28;20167;-68
2023/08/03 05:18:36;;;;;;;0.57;0.30;;;;;;;18.67;100.00;98303.28;5023446;28;20042;-67
2023/08/03 05:21:02;;;;;;;0.17;0.17;;;;;;;18.88;100.00;98312.34;5030797;28;20035;-70
2023/08/03 05:23:27;;;;;;;0.60;0.32;;;;;;;18.90;100.00;98307.16;5030329;28;20522;-68
2023/08/03 05:25:54;;;;;;;0.47;0.30;;;;;;;18.89;100.00;98313.84;4978638;28;20512;-67
2023/08/03 05:28:20;;;;;;;3.72;0.25;;;;;;;19.01;100.00;98314.81;5028228;28;20649;-68
2023/08/03 05:31:06;;;;;;;2.85;0.32;;;;;;;19.02;100.00;98317.06;4969008;28;20110;-67
2023/08/03 05:33:35;;;;;;;0.20;0.20;;;;;;;19.00;100.00;98319.50;5012199;28;20095;-65
2023/08/03 05:36:01;;;;;;;0.77;0.30;;;;;;;18.95;100.00;98322.13;4990704;28;20042;-65
2023/08/03 05:38:27;;;;;;;0.95;0.30;;;;;;;18.84;100.00;98320.72;4987691;28;21154;-65
2023/08/03 05:40:53;;;;;;;0.20;0.20;;;;;;;19.03;100.00;98328.75;5001046;28;20042;-66
2023/08/03 05:43:23;;;;;;;0.30;0.30;;;;;;;19.09;100.00;98321.38;4991928;28;20087;-68
2023/08/03 05:45:49;;;;;;;0.20;0.20;;;;;;;19.04;100.00;98331.00;4994471;28;20095;-68
2023/08/03 05:48:18;;;;;;;0.10;0.10;;;;;;;19.05;100.00;98315.38;5012852;28;20128;-67
2023/08/03 05:50:51;;;;;;;0.32;0.25;;;;;;;19.02;100.00;98322.53;4990721;28;20084;-67
2023/08/03 05:53:17;;;;;;;1.23;0.20;;;;;;;18.96;100.00;98324.41;5011915;28;20042;-67
2023/08/03 05:55:43;;;;;;;0.30;0.25;;;;;;;19.21;100.00;98328.56;4993701;28;20040;-68
2023/08/03 05:58:12;;;;;;;0.17;0.17;;;;;;;19.20;100.00;98330.53;5014067;28;20132;-68
2023/08/03 06:00:39;;;;;;;0.35;0.20;;;;;;;19.09;100.00;98335.78;5000914;28;20101;-68
2023/08/03 06:03:05;;;;;;;0.75;0.55;;;;;;;19.23;100.00;98335.06;5002612;28;20136;-68
2023/08/03 06:05:41;;;;;;;0.20;0.10;;;;;;;19.26;100.00;98330.66;5006242;28;20101;-67
2023/08/03 06:08:24;;;;;;;0.10;0.10;;;;;;;19.08;100.00;98342.47;4996743;28;20029;-66
2023/08/03 06:10:55;;;;;;;0.60;0.30;;;;;;;18.88;100.00;98339.63;4982136;28;20058;-66
2023/08/03 06:13:29;;;;;;;0.75;0.20;;;;;;;19.02;100.00;98346.31;4970228;28;20050;-67
2023/08/03 06:15:55;;;;;;;0.13;0.10;;;;;;;19.14;100.00;98340.63;5040711;28;20569;-67
2023/08/03 06:18:21;;;;;;;0.20;0.10;;;;;;;19.29;100.00;98352.28;4964460;28;20027;-67
2023/08/03 06:20:51;;;;;;;0.20;0.20;;;;;;;19.47;100.00;98345.94;4966546;28;20058;-67
2023/08/03 06:23:23;;;;;;;0.30;0.30;;;;;;;19.38;100.00;98346.75;4960080;28;20400;-67
2023/08/03 06:25:50;;;;;;;0.17;0.10;;;;;;;19.43;100.00;98351.56;5021592;28;20458;-67
2023/08/03 06:28:18;;;;;;;3.90;0.22;;;;;;;19.46;100.00;98350.63;4959373;28;20046;-65
2023/08/03 06:30:44;;;;;;;0.75;0.10;;;;;;;19.68;100.00;98356.47;5017450;28;20043;-68
2023/08/03 06:33:12;;;;;;;0.80;0.10;;;;;;;19.52;100.00;98354.22;4967010;28;20034;-66
2023/08/03 06:35:40;;;;;;;0.00;0.00;;;;;;;19.57;100.00;98361.72;4974031;28;20034;-66
2023/08/03 06:38:08;;;;;;;0.20;0.20;;;;;;;19.47;100.00;98373.97;5011604;28;20118;-67
2023/08/03 06:40:34;;;;;;;0.20;0.20;;;;;;;19.47;100.00;98371.22;4971419;28;20155;-66
2023/08/03 06:43:03;;;;;;;0.10;0.10;;;;;;;19.56;100.00;98371.16;4969347;28;20053;-66
2023/08/03 06:45:30;;;;;;;0.22;0.22;;;;;;;19.57;100.00;98372.66;4956847;28;20043;-66
2023/08/03 06:47:57;;;;;;;0.63;0.20;;;;;;;19.59;100.00;98375.66;4967980;28;20726;-67
2023/08/03 06:50:22;;;;;;;0.00;0.00;;;;;;;19.63;100.00;98380.94;4965674;28;20049;-67
2023/08/03 06:52:48;;;;;;;0.10;0.00;;;;;;;19.67;100.00;98370.56;4963727;28;20229;-67
2023/08/03 06:55:13;;;;;;;0.20;0.10;;;;;;;19.57;100.00;98378.13;4974988;28;20395;-67
2023/08/03 06:57:39;;;;;;;0.10;0.10;;;;;;;19.67;100.00;98376.03;4971443;28;20042;-66
2023/08/03 07:00:05;;;;;;;0.10;0.10;;;;;;;19.64;100.00;98380.47;4970430;28;20060;-67
2023/08/03 07:02:30;;;;;;;0.13;0.10;;;;;;;19.61;100.00;98381.41;4977333;28;20035;-67
2023/08/03 07:04:56;;;;;;;0.08;0.03;;;;;;;19.67;100.00;98389.69;4956942;28;20700;-66
2023/08/03 07:07:21;;;;;;;0.30;0.20;;;;;;;19.68;100.00;98386.50;4976222;28;20081;-67
2023/08/03 07:09:50;;;;;;;0.15;0.15;;;;;;;19.78;100.00;98382.44;4981783;28;20065;-66
2023/08/03 07:12:15;;;;;;;0.00;0.00;;;;;;;19.76;100.00;98395.81;4963150;28;20031;-66
2023/08/03 07:14:41;;;;;;;0.20;0.20;;;;;;;19.78;100.00;98398.09;4973908;28;20026;-66
2023/08/03 07:17:07;;;;;;;0.10;0.10;;;;;;;19.88;100.00;98401.47;4983189;28;20113;-66
2023/08/03 07:19:33;;;;;;;0.17;0.17;;;;;;;19.86;100.00;98398.47;4979039;28;20576;-66
2023/08/03 07:21:58;;;;;;;0.00;0.00;;;;;;;19.88;100.00;98407.69;4968494;28;20053;-66
2023/08/03 07:24:24;;;;;;;0.10;0.10;;;;;;;19.97;100.00;98409.56;4971657;28;20022;-65
2023/08/03 07:26:50;;;;;;;0.00;0.00;;;;;;;20.08;100.00;98409.72;5036539;28;20042;-66
2023/08/03 07:29:16;;;;;;;0.00;0.00;;;;;;;19.93;100.00;98404.28;4965078;28;20050;-66
2023/08/03 07:31:41;;;;;;;0.00;0.00;;;;;;;19.88;100.00;98412.41;4974573;28;20083;-66
2023/08/03 07:34:07;;;;;;;0.00;0.00;;;;;;;19.97;100.00;98420.50;4973078;28;20484;-70
2023/08/03 07:36:32;;;;;;;0.10;0.10;;;;;;;19.98;100.00;98411.06;4968194;28;20509;-67
2023/08/03 07:38:58;;;;;;;0.00;0.00;;;;;;;20.04;100.00;98415.41;5026382;28;20096;-67
2023/08/03 07:41:23;;;;;;;0.10;0.05;;;;;;;19.93;100.00;98417.97;4964080;28;20124;-67
2023/08/03 07:43:50;;;;;;;0.00;0.00;;;;;;;19.97;100.00;98417.75;4967297;28;20031;-67
2023/08/03 07:46:15;;;;;;;0.00;0.00;;;;;;;19.90;100.00;98429.09;5031797;28;20050;-67
2023/08/03 07:48:41;;;;;;;0.15;0.08;;;;;;;19.90;100.00;98429.09;4966761;28;20047;-67
2023/08/03 07:51:14;;;;;;;0.00;0.00;;;;;;;19.95;100.00;98439.34;4967700;28;20042;-67
2023/08/03 07:53:39;;;;;;;0.38;0.10;;;;;;;19.99;100.00;98435.19;4967774;28;20039;-67
2023/08/03 07:56:16;;;;;;;0.73;0.20;;;;;;;19.88;100.00;98434.28;5032516;28;20110;-67
2023/08/03 07:58:42;;;;;;;1.65;0.05;;;;;;;19.82;100.00;98439.63;4967505;28;20089;-66
2023/08/03 08:01:10;;;;;;;1.60;0.20;;;;;;;19.70;100.00;98432.47;5028230;28;20507;-67
2023/08/03 08:03:40;;;;;;;1.27;0.10;;;;;;;19.69;100.00;98439.91;4964869;28;20037;-67
2023/08/03 08:06:11;;;;;;;0.20;0.10;;;;;;;19.76;100.00;98438.78;4970384;28;20047;-67
2023/08/03 08:08:39;;;;;;;;;;;;;;;19.72;100.00;98436.22;4968675;28;20041;-67
2023/08/03 08:11:05;;;;;;;0.13;0.10;;;;;;;19.70;100.00;98435.94;4967672;28;20005;-66
2023/08/03 08:13:31;;;;;;;0.30;0.25;;;;;;;19.73;100.00;98445.19;4963466;28;20111;-66
2023/08/03 08:16:02;;;;;;;0.30;0.20;;;;;;;19.75;100.00;98453.66;4963051;28;20502;-67
2023/08/03 08:18:28;;;;;;;0.22;0.22;;;;;;;19.79;100.00;98456.97;4967982;28;20364;-67
2023/08/03 08:21:00;;;;;;;0.28;0.20;;;;;;;19.84;100.00;98461.03;4968286;28;20026;-67
2023/08/03 08:23:26;;;;;;;0.22;0.20;;;;;;;19.89;100.00;98466.56;4964643;28;20096;-68
2023/08/03 08:25:52;;;;;;;0.40;0.40;;;;;;;19.89;100.00;98474.78;4958953;28;20795;-68
2023/08/03 08:28:18;;;;;;;0.50;0.30;;;;;;;19.94;100.00;98476.09;4963479;28;20070;-67
2023/08/03 08:30:44;;;;;;;0.40;0.30;;;;;;;19.95;100.00;98472.13;4969269;28;20037;-67
2023/08/03 08:33:10;;;;;;;0.50;0.45;;;;;;;19.91;100.00;98479.75;5029552;28;20089;-67
2023/08/03 08:35:36;;;;;;;0.40;0.38;;;;;;;19.98;100.00;98479.38;5048564;28;20053;-67
2023/08/03 08:38:05;;;;;;;3.40;0.28;;;;;;;19.97;100.00;98494.28;5032478;28;20035;-67
2023/08/03 08:40:38;;;;;;;0.10;0.10;;;;;;;19.93;100.00;98483.53;5037046;28;20057;-67
2023/08/03 08:43:05;;;;;;;0.45;0.40;;;;;;;19.86;100.00;98494.81;5038671;28;20395;-67
2023/08/03 08:45:30;;;;;;;0.40;0.40;;;;;;;19.94;100.00;98497.97;5027246;28;20026;-68
2023/08/03 08:47:57;;;;;;;0.77;0.40;;;;;;;19.99;100.00;98505.50;4978769;28;20034;-68
2023/08/03 08:50:22;;;;;;;0.57;0.50;;;;;;;20.10;100.00;98524.81;4967571;28;20376;-67
2023/08/03 08:52:49;;;;;;;0.20;0.20;;;;;;;19.98;100.00;98517.63;4968874;28;20039;-67
2023/08/03 08:55:21;;;;;;;0.52;0.38;;;;;;;20.01;100.00;98531.13;4968491;28;20014;-67
2023/08/03 08:57:47;;;;;;;0.45;0.43;;;;;;;20.09;100.00;98531.53;4967190;28;20035;-68
2023/08/03 09:00:13;;;;;;;0.32;0.32;;;;;;;20.15;100.00;98529.63;4977195;28;20042;-68
2023/08/03 09:02:38;;;;;;;0.20;0.20;;;;;;;20.12;100.00;98536.03;5038273;28;20491;-66
2023/08/03 09:05:13;;;;;;;1.65;0.57;;;;;;;19.99;100.00;98532.81;4957292;28;20035;-67
2023/08/03 09:07:38;;;;;;;0.52;0.32;;;;;;;20.02;100.00;98543.56;4970407;28;20164;-68
2023/08/03 09:10:04;;;;;;;0.43;0.32;;;;;;;20.10;100.00;98546.69;4970743;28;20056;-68
2023/08/03 09:12:30;;;;;;;1.25;0.50;;;;;;;20.18;100.00;98545.88;4969726;28;20391;-66
2023/08/03 09:14:55;;;;;;;0.40;0.40;;;;;;;20.14;100.00;98544.50;5025561;28;20059;-66
2023/08/03 09:17:24;;;;;;;1.42;0.52;;;;;;;20.43;100.00;98547.28;4964157;28;20042;-67
2023/08/03 09:19:51;;;;;;;1.35;0.65;;;;;;;20.54;100.00;98555.66;4976239;28;20029;-67
2023/08/03 09:22:18;;;;;;;0.60;0.60;;;;;;;20.77;100.00;98548.56;4979894;28;20035;-66
2023/08/03 09:24:46;;;;;;;1.10;0.85;;;;;;;20.97;100.00;98559.53;4974540;28;20031;-67
2023/08/03 09:27:16;;;;;;;1.25;0.93;;;;;;;21.01;100.00;98554.66;5029588;28;20099;-68
2023/08/03 09:29:42;;;;;;;0.73;0.60;;;;;;;20.99;100.00;98560.56;4956260;28;20039;-67
2023/08/03 09:32:08;;;;;;;1.30;1.00;;;;;;;21.19;100.00;98555.16;5036661;28;20144;-67
2023/08/03 09:34:42;;;;;;;0.85;0.80;;;;;;;21.32;100.00;98552.84;4970015;28;20030;-67
2023/08/03 09:37:09;;;;;;;1.73;1.10;;;;;;;21.36;100.00;98556.13;4979424;28;20038;-67
2023/08/03 09:39:36;;;;;;;1.38;0.95;;;;;;;21.42;100.00;98556.97;4989427;28;20042;-68
2023/08/03 09:42:03;;;;;;;0.93;0.85;;;;;;;21.38;100.00;98567.38;4985812;28;20058;-67
2023/08/03 09:44:36;;;;;;;1.67;0.80;;;;;;;21.27;100.00;98559.00;4969104;28;20034;-67
2023/08/03 09:47:05;;;;;;;1.75;1.20;;;;;;;21.42;100.00;98562.44;4969333;28;20049;-67
2023/08/03 09:49:31;;;;;;;0.93;0.77;;;;;;;21.30;100.00;98549.84;4958582;28;20045;-68
2023/08/03 09:52:03;;;;;;;0.88;0.50;;;;;;;21.31;100.00;98565.03;4965308;28;20034;-67
2023/08/03 09:54:39;;;;;;;0.93;0.80;;;;;;;21.31;100.00;98569.75;5029638;28;20039;-66
2023/08/03 09:57:09;;;;;;;0.90;0.73;;;;;;;21.33;100.00;98579.00;4964477;28;20054;-67
2023/08/03 09:59:40;;;;;;;0.57;0.55;;;;;;;21.42;100.00;98572.63;4974033;28;20035;-67
2023/08/03 10:02:14;;;;;;;0.70;0.50;;;;;;;21.34;100.00;98590.72;4968103;28;20042;-67
2023/08/03 10:04:42;;;;;;;1.13;0.70;;;;;;;21.28;100.00;98589.88;4970601;28;20046;-66
2023/08/03 10:07:10;;;;;;;1.02;0.60;;;;;;;21.23;100.00;98599.53;4971138;28;20551;-68
2023/08/03 10:09:39;;;;;;;0.98;0.55;;;;;;;21.06;100.00;98597.78;5022987;28;20410;-67
2023/08/03 10:12:11;;;;;;;0.52;0.52;;;;;;;21.05;100.00;98594.28;4957433;28;20062;-67
2023/08/03 10:14:42;;;;;;;1.10;0.47;;;;;;;21.03;100.00;98604.19;4975001;28;20095;-67
2023/08/03 10:17:11;;;;;;;1.58;0.60;;;;;;;20.95;100.00;98606.56;4980695;28;20030;-67
2023/08/03 10:19:38;;;;;;;0.85;0.65;;;;;;;20.99;100.00;98609.09;4978108;28;20033;-66
2023/08/03 10:22:06;;;;;;;0.85;0.60;;;;;;;20.96;100.00;98610.81;5040123;28;20080;-67
2023/08/03 10:24:32;;;;;;;0.70;0.57;;;;;;;20.93;100.00;98610.97;4984163;28;20030;-68
2023/08/03 10:27:18;;;;;;;0.80;0.73;;;;;;;20.91;100.00;98610.72;5052665;28;20094;-67
2023/08/03 10:29:50;;;;;;;0.75;0.60;;;;;;;20.98;100.00;98615.81;4970873;28;20060;-67
2023/08/03 10:32:26;;;;;;;0.77;0.60;;;;;;;20.93;100.00;98611.75;5030150;28;20034;-69
2023/08/03 10:35:17;;;;;;;1.00;0.90;;;;;;;20.85;100.00;98632.50;4980543;28;20031;-68
2023/08/03 10:37:45;;;;;;;1.00;0.57;;;;;;;20.89;100.00;98640.53;4975270;28;20023;-69
2023/08/03 10:40:21;;;;;;;0.80;0.60;;;;;;;20.79;100.00;98661.03;4971290;28;20030;-69
2023/08/03 10:43:10;;;;;;;1.00;0.52;;;;;;;20.65;100.00;98662.56;5047334;28;20715;-67
2023/08/03 10:45:37;;;;;;;0.55;0.45;;;;;;;20.52;100.00;98657.34;5058809;28;20432;-68
2023/08/03 10:48:30;;;;;;;0.45;0.45;;;;;;;20.46;100.00;98655.75;4978219;28;20037;-68
2023/08/03 10:51:00;;;;;;;1.05;0.80;;;;;;;20.49;100.00;98669.25;5044971;28;20040;-68
2023/08/03 10:53:29;;;;;;;0.20;0.20;;;;;;;20.36;100.00;98670.72;5047818;28;20398;-68
2023/08/03 10:56:10;;;;;;;0.50;0.32;;;;;;;20.40;100.00;98671.31;5045081;28;20042;-68
2023/08/03 10:58:48;;;;;;;3.22;0.55;;;;;;;20.36;100.00;98676.19;5043052;28;20054;-68
2023/08/03 11:01:24;;;;;;;0.75;0.55;;;;;;;20.29;100.00;98685.50;5044761;28;20030;-68
2023/08/03 11:03:50;;;;;;;0.60;0.60;;;;;;;20.32;100.00;98692.78;4977749;28;20039;-68
2023/08/03 11:06:17;;;;;;;0.50;0.40;;;;;;;20.35;100.00;98694.56;5046113;28;20126;-68
2023/08/03 11:08:48;;;;;;;0.40;0.40;;;;;;;20.35;100.00;98705.53;4982316;28;20112;-69
2023/08/03 11:11:16;;;;;;;;;;;;;;;20.31;100.00;98710.41;5049982;28;20406;-68
2023/08/03 11:13:45;;;;;;;0.60;0.50;;;;;;;20.32;100.00;98702.97;5048622;28;19914;-67
2023/08/03 11:16:15;;;;;;;0.77;0.50;;;;;;;20.39;100.00;98711.56;5042846;28;20112;-68
2023/08/03 11:18:45;;;;;;;0.75;0.60;;;;;;;20.43;100.00;98705.91;4971265;28;20054;-68
2023/08/03 11:23:47;;;;;;;0.60;0.50;;;;;;;20.76;100.00;98714.72;5022877;28;20048;-66
2023/08/03 11:26:13;;;;;;;0.70;0.50;;;;;;;20.97;100.00;98707.34;5026416;28;20485;-66
2023/08/03 11:28:43;;;;;;;0.40;0.40;;;;;;;21.25;100.00;98716.81;5025150;28;20115;-66
2023/08/03 11:31:16;;;;;;;1.08;0.68;;;;;;;21.51;100.00;98712.22;5016371;28;20079;-66